Time;durP1;ratioP1;P1;durP2;ratioP2;P2;SDS_P1;SDS_P2;PMS_P1;PMS_P2;Temp;Humidity;BMP_temperature;BMP_pressure;BME280_temperature;BME280_humidity;BME280_pressure;Samples;Min_cycle;Max_cycle;Signal;HPM_P1;HPM_P2
2022/03/31 00:00:28;;;;;;;7.27;4.00;;;2.10;99.90;;;;;;4945314;28;20177;-79
2022/03/31 00:02:55;;;;;;;7.13;4.40;;;2.30;99.90;;;;;;4945350;28;20189;-80
2022/03/31 00:05:21;;;;;;;9.07;4.17;;;2.40;99.90;;;;;;4945600;28;20227;-79
2022/03/31 00:07:58;;;;;;;6.37;4.00;;;2.50;99.90;;;;;;4944641;28;20209;-80
2022/03/31 00:10:27;;;;;;;6.67;3.97;;;2.40;99.90;;;;;;4962690;28;20211;-79
2022/03/31 00:12:54;;;;;;;6.67;3.70;;;2.40;99.90;;;;;;4944937;28;20219;-81
2022/03/31 00:15:21;;;;;;;6.77;4.00;;;2.30;99.90;;;;;;4945191;28;20177;-79
2022/03/31 00:17:47;;;;;;;7.07;3.67;;;2.20;99.90;;;;;;4943809;28;20212;-79
2022/03/31 00:20:12;;;;;;;6.53;4.17;;;2.10;99.90;;;;;;4962405;28;20185;-79
2022/03/31 00:22:39;;;;;;;6.57;3.70;;;1.90;99.90;;;;;;4961968;28;20346;-79
2022/03/31 00:25:07;;;;;;;8.13;4.50;;;1.90;99.90;;;;;;4961626;28;20185;-79
2022/03/31 00:27:34;;;;;;;8.73;4.50;;;1.90;99.90;;;;;;4960221;28;20200;-80
2022/03/31 00:29:59;;;;;;;7.83;4.87;;;1.90;99.90;;;;;;4944225;28;20665;-80
2022/03/31 00:32:25;;;;;;;10.30;5.00;;;1.90;99.90;;;;;;4944825;28;20216;-78
2022/03/31 00:34:50;;;;;;;10.80;5.10;;;2.00;99.90;;;;;;4945491;28;20322;-79
2022/03/31 00:37:16;;;;;;;9.77;5.57;;;2.10;99.90;;;;;;4962368;28;20209;-80
2022/03/31 00:39:42;;;;;;;9.93;5.43;;;2.10;99.90;;;;;;4943856;28;20702;-79
2022/03/31 00:42:10;;;;;;;9.50;5.23;;;2.20;99.90;;;;;;4945619;28;20196;-81
2022/03/31 00:44:36;;;;;;;10.87;5.83;;;2.30;99.90;;;;;;4963414;28;20331;-81
2022/03/31 00:47:02;;;;;;;11.37;5.67;;;2.40;99.90;;;;;;4962852;28;20245;-80
2022/03/31 00:49:28;;;;;;;10.93;6.20;;;2.50;99.90;;;;;;4945159;28;20215;-79
2022/03/31 00:51:55;;;;;;;10.37;5.73;;;2.60;99.90;;;;;;4962987;28;20220;-80
2022/03/31 00:54:23;;;;;;;10.53;5.83;;;2.70;99.90;;;;;;4945222;28;20188;-80
2022/03/31 00:56:49;;;;;;;10.53;6.23;;;2.80;99.90;;;;;;4962420;28;20181;-80
2022/03/31 00:59:17;;;;;;;12.23;5.57;;;2.80;99.90;;;;;;4945114;28;20744;-80
2022/03/31 01:01:44;;;;;;;10.60;6.70;;;2.80;99.90;;;;;;4963463;28;20177;-80
2022/03/31 01:04:11;;;;;;;11.67;6.73;;;2.90;99.90;;;;;;4964115;28;20196;-80
2022/03/31 01:06:37;;;;;;;10.80;6.87;;;3.00;99.90;;;;;;4965810;28;20210;-79
2022/03/31 01:09:04;;;;;;;10.40;6.43;;;3.10;99.90;;;;;;4964787;28;20292;-80
2022/03/31 01:11:31;;;;;;;10.13;6.07;;;3.30;99.90;;;;;;4965924;28;20177;-80
2022/03/31 01:13:57;;;;;;;9.37;6.53;;;3.30;99.90;;;;;;4965317;28;20189;-79
2022/03/31 01:16:23;;;;;;;10.67;7.27;;;3.40;99.90;;;;;;4965662;28;20260;-79
2022/03/31 01:18:50;;;;;;;10.83;6.23;;;3.40;99.90;;;;;;4964927;28;20209;-79
2022/03/31 01:21:17;;;;;;;10.60;6.03;;;3.50;99.90;;;;;;4965615;28;20185;-80
2022/03/31 01:23:44;;;;;;;11.77;6.77;;;3.50;99.90;;;;;;4947774;28;20671;-78
2022/03/31 01:26:10;;;;;;;12.27;7.30;;;3.50;99.90;;;;;;4965733;28;20245;-81
2022/03/31 01:28:39;;;;;;;11.07;6.20;;;3.50;99.90;;;;;;4964863;28;20201;-80
2022/03/31 01:31:05;;;;;;;10.20;6.67;;;3.60;99.90;;;;;;4951727;28;20197;-80
2022/03/31 01:33:31;;;;;;;9.80;6.37;;;3.60;99.90;;;;;;4968449;28;20424;-80
2022/03/31 01:35:56;;;;;;;10.10;6.30;;;3.70;99.90;;;;;;4968447;28;20185;-79
2022/03/31 01:38:22;;;;;;;12.27;6.83;;;3.70;99.90;;;;;;4948798;28;20201;-80
2022/03/31 01:40:48;;;;;;;11.97;6.40;;;3.70;99.90;;;;;;4950122;28;20181;-80
2022/03/31 01:43:14;;;;;;;9.87;6.80;;;3.70;99.90;;;;;;4978367;28;20762;-80
2022/03/31 01:45:59;;;;;;;8.13;6.10;;;3.70;99.90;;;;;;4958730;28;20188;-80
2022/03/31 01:48:24;;;;;;;8.63;6.30;;;3.70;99.90;;;;;;4950865;28;20216;-81
2022/03/31 01:50:50;;;;;;;8.03;5.83;;;3.80;99.90;;;;;;4951378;28;20784;-80
2022/03/31 01:53:18;;;;;;;10.63;6.27;;;3.80;99.90;;;;;;4986938;28;20185;-80
2022/03/31 01:55:44;;;;;;;9.27;5.93;;;3.80;99.90;;;;;;4968211;28;20177;-81
2022/03/31 01:58:09;;;;;;;10.63;6.57;;;3.80;99.90;;;;;;4968140;28;20220;-80
2022/03/31 02:00:35;;;;;;;9.57;6.00;;;3.80;99.90;;;;;;4968436;28;20622;-81
2022/03/31 02:03:01;;;;;;;10.33;5.53;;;3.80;99.90;;;;;;4968470;28;20456;-80
2022/03/31 02:05:27;;;;;;;8.77;5.23;;;3.80;99.90;;;;;;4968924;28;20591;-81
2022/03/31 02:07:56;;;;;;;10.00;5.93;;;3.70;99.90;;;;;;4967976;28;20237;-80
2022/03/31 02:10:25;;;;;;;8.50;5.33;;;3.60;99.90;;;;;;4968916;28;20189;-80
2022/03/31 02:12:51;;;;;;;7.50;4.60;;;3.60;99.90;;;;;;4968802;28;20181;-79
2022/03/31 02:15:20;;;;;;;9.77;4.83;;;3.50;99.90;;;;;;4968469;28;20291;-80
2022/03/31 02:17:46;;;;;;;8.87;4.83;;;3.40;99.90;;;;;;4967796;28;20212;-80
2022/03/31 02:20:12;;;;;;;10.07;5.37;;;3.30;99.90;;;;;;4965960;28;20200;-81
2022/03/31 02:22:38;;;;;;;10.93;5.90;;;3.20;99.90;;;;;;4948396;28;20215;-80
2022/03/31 02:25:05;;;;;;;8.87;5.10;;;3.30;99.90;;;;;;4965725;28;20432;-80
2022/03/31 02:27:31;;;;;;;11.07;5.67;;;3.20;99.90;;;;;;4965402;28;20291;-79
2022/03/31 02:29:56;;;;;;;9.93;6.20;;;3.20;99.90;;;;;;4948366;28;20599;-81
2022/03/31 02:32:22;;;;;;;8.70;6.63;;;3.20;99.90;;;;;;4948440;28;20230;-80
2022/03/31 02:34:48;;;;;;;10.23;6.03;;;3.30;99.90;;;;;;4965438;28;20806;-80
2022/03/31 02:37:13;;;;;;;9.23;5.80;;;3.30;99.90;;;;;;4948227;28;20571;-81
2022/03/31 02:39:39;;;;;;;12.57;6.60;;;3.30;99.90;;;;;;4947858;28;20245;-79
2022/03/31 02:42:05;;;;;;;11.87;7.13;;;3.30;99.90;;;;;;4948469;28;20677;-80
2022/03/31 02:44:30;;;;;;;15.23;8.53;;;3.30;99.90;;;;;;4948043;28;20267;-81
2022/03/31 02:46:56;;;;;;;15.53;10.40;;;3.30;99.90;;;;;;4964971;28;20189;-80
2022/03/31 02:49:21;;;;;;;15.67;10.63;;;3.30;99.90;;;;;;4947763;28;20576;-81
2022/03/31 02:51:47;;;;;;;16.67;10.43;;;3.30;99.90;;;;;;4965111;28;20234;-80
2022/03/31 02:56:57;;;;;;;15.90;9.73;;;3.30;99.90;;;;;;4965199;28;20196;-80
2022/03/31 02:59:23;;;;;;;17.80;10.60;;;3.30;99.90;;;;;;4964813;28;20205;-80
2022/03/31 03:01:48;;;;;;;15.97;10.70;;;3.30;99.90;;;;;;4965435;28;20335;-80
2022/03/31 03:04:14;;;;;;;17.37;11.20;;;3.30;99.90;;;;;;4947248;28;20248;-81
2022/03/31 03:06:41;;;;;;;15.47;10.33;;;3.20;99.90;;;;;;4965510;28;20196;-80
2022/03/31 03:09:07;;;;;;;15.70;10.47;;;3.30;99.90;;;;;;4948659;28;20216;-80
2022/03/31 03:11:33;;;;;;;15.90;10.33;;;3.30;99.90;;;;;;4967768;28;20264;-81
2022/03/31 03:13:59;;;;;;;15.37;10.63;;;3.30;99.90;;;;;;4949321;28;20272;-81
2022/03/31 03:16:25;;;;;;;17.73;10.30;;;3.30;99.90;;;;;;4967116;28;20673;-81
2022/03/31 03:18:52;;;;;;;15.60;9.77;;;3.40;99.90;;;;;;4949156;28;20212;-80
2022/03/31 03:21:19;;;;;;;17.70;8.67;;;3.40;99.90;;;;;;4959454;28;20185;-81
2022/03/31 03:23:46;;;;;;;12.07;8.80;;;3.40;99.90;;;;;;4967429;28;20177;-79
2022/03/31 03:26:12;;;;;;;11.53;7.73;;;3.40;99.90;;;;;;4967296;28;20185;-80
2022/03/31 03:28:38;;;;;;;12.67;8.67;;;3.40;99.90;;;;;;4949346;28;20208;-80
2022/03/31 03:31:07;;;;;;;14.93;8.90;;;3.40;99.90;;;;;;4949333;28;20557;-80
2022/03/31 03:33:34;;;;;;;12.47;8.33;;;3.40;99.90;;;;;;4949606;28;20181;-79
2022/03/31 03:36:01;;;;;;;15.70;9.30;;;3.30;99.90;;;;;;4949442;28;20688;-80
2022/03/31 03:38:27;;;;;;;14.83;10.27;;;3.30;99.90;;;;;;4966021;28;20251;-80
2022/03/31 03:40:53;;;;;;;16.80;10.73;;;3.30;99.90;;;;;;4949283;28;20185;-80
2022/03/31 03:43:19;;;;;;;18.67;10.50;;;3.30;99.90;;;;;;4967205;28;20219;-80
2022/03/31 03:45:45;;;;;;;16.90;10.77;;;3.30;99.90;;;;;;4967183;28;20200;-81
2022/03/31 03:48:11;;;;;;;15.40;10.40;;;3.40;99.90;;;;;;4948641;28;20254;-80
2022/03/31 03:50:38;;;;;;;14.53;9.83;;;3.40;99.90;;;;;;4966873;28;20177;-80
2022/03/31 03:53:04;;;;;;;15.83;9.33;;;3.40;99.90;;;;;;4966379;28;20185;-80
2022/03/31 03:55:36;;;;;;;13.43;9.37;;;3.30;99.90;;;;;;4948683;28;20188;-80
2022/03/31 03:58:03;;;;;;;12.80;8.77;;;3.30;99.90;;;;;;4966546;28;20208;-80
2022/03/31 04:00:29;;;;;;;13.33;8.77;;;3.30;99.90;;;;;;4966696;28;20481;-79
2022/03/31 04:02:55;;;;;;;14.50;8.93;;;3.30;99.90;;;;;;4948765;28;20181;-80
2022/03/31 04:05:21;;;;;;;13.73;9.00;;;3.30;99.90;;;;;;4948404;28;20185;-80
2022/03/31 04:07:47;;;;;;;14.37;8.97;;;3.20;99.90;;;;;;4966748;28;20215;-80
2022/03/31 04:10:13;;;;;;;15.47;8.67;;;3.10;99.90;;;;;;4965868;28;20255;-80
2022/03/31 04:12:39;;;;;;;12.53;8.80;;;3.10;99.90;;;;;;4966976;28;20185;-79
2022/03/31 04:15:07;;;;;;;15.73;10.13;;;3.00;99.90;;;;;;4965848;28;20188;-79
2022/03/31 04:17:34;;;;;;;16.23;10.13;;;3.00;99.90;;;;;;4947232;28;20291;-79
2022/03/31 04:19:59;;;;;;;17.87;11.37;;;3.00;99.90;;;;;;4947463;28;20217;-79
2022/03/31 04:22:25;;;;;;;16.33;10.80;;;3.00;99.90;;;;;;4964747;28;20221;-80
2022/03/31 04:24:51;;;;;;;18.33;10.87;;;3.10;99.90;;;;;;4964439;28;20719;-79
2022/03/31 04:27:17;;;;;;;22.67;12.30;;;3.10;99.90;;;;;;4946137;28;20270;-79
2022/03/31 04:29:42;;;;;;;20.80;12.03;;;3.20;99.90;;;;;;4965343;28;20546;-80
2022/03/31 04:32:09;;;;;;;21.73;13.77;;;3.20;99.90;;;;;;4949118;28;20189;-80
2022/03/31 04:34:35;;;;;;;26.03;14.13;;;3.10;99.90;;;;;;4948156;28;20772;-79
2022/03/31 04:37:01;;;;;;;23.40;13.87;;;3.10;99.90;;;;;;4966537;28;20639;-80
2022/03/31 04:39:27;;;;;;;22.07;13.80;;;3.10;99.90;;;;;;4966145;28;20201;-80
2022/03/31 04:41:53;;;;;;;20.53;13.47;;;3.10;99.90;;;;;;4967094;28;20579;-80
2022/03/31 04:44:19;;;;;;;25.70;13.87;;;3.20;99.90;;;;;;4948296;28;20200;-80
2022/03/31 04:46:45;;;;;;;27.10;15.53;;;3.10;99.90;;;;;;4948417;28;20177;-80
2022/03/31 04:49:11;;;;;;;29.97;16.23;;;3.20;99.90;;;;;;4966457;28;20221;-81
2022/03/31 04:51:38;;;;;;;25.03;15.03;;;3.10;99.90;;;;;;4947322;28;21147;-80
2022/03/31 04:54:03;;;;;;;24.33;14.20;;;3.20;99.90;;;;;;4946938;28;20250;-80
2022/03/31 04:56:29;;;;;;;23.73;14.33;;;3.20;99.90;;;;;;4965372;28;20185;-79
2022/03/31 04:58:55;;;;;;;22.67;13.47;;;3.20;99.90;;;;;;4947546;28;20221;-81
2022/03/31 05:01:22;;;;;;;20.23;12.50;;;3.20;99.90;;;;;;4965814;28;20276;-80
2022/03/31 05:03:49;;;;;;;19.60;11.67;;;3.20;99.90;;;;;;4948110;28;20191;-80
2022/03/31 05:06:15;;;;;;;18.57;11.37;;;3.10;99.90;;;;;;4968392;28;20181;-79
2022/03/31 05:08:42;;;;;;;14.83;9.57;;;3.20;99.90;;;;;;4968220;28;20204;-80
2022/03/31 05:11:08;;;;;;;13.53;8.67;;;3.20;99.90;;;;;;4951640;28;20185;-80
2022/03/31 05:13:33;;;;;;;11.00;7.80;;;3.20;99.90;;;;;;4969614;28;20196;-80
2022/03/31 05:15:59;;;;;;;10.83;7.10;;;3.20;99.90;;;;;;4951161;28;20188;-79
2022/03/31 05:18:25;;;;;;;11.97;6.93;;;3.30;99.90;;;;;;4951166;28;20743;-80
2022/03/31 05:20:50;;;;;;;11.07;7.37;;;3.30;99.90;;;;;;4951423;28;20177;-80
2022/03/31 05:23:16;;;;;;;10.10;7.50;;;3.30;99.90;;;;;;4969567;28;20690;-80
2022/03/31 05:25:42;;;;;;;14.23;7.87;;;3.30;99.90;;;;;;4969529;28;20181;-79
2022/03/31 05:28:08;;;;;;;9.80;6.27;;;3.30;99.90;;;;;;4951504;28;20636;-79
2022/03/31 05:30:34;;;;;;;11.63;6.83;;;3.30;99.90;;;;;;4951611;28;20616;-80
2022/03/31 05:32:59;;;;;;;10.33;6.67;;;3.40;99.90;;;;;;4969775;28;20279;-80
2022/03/31 05:35:27;;;;;;;7.87;6.07;;;3.40;99.90;;;;;;4968783;28;20192;-79
2022/03/31 05:37:53;;;;;;;8.97;6.33;;;3.40;99.90;;;;;;4950630;28;20209;-79
2022/03/31 05:40:19;;;;;;;7.27;5.23;;;3.40;99.90;;;;;;4968778;28;20192;-80
2022/03/31 05:42:45;;;;;;;7.30;5.30;;;3.30;99.90;;;;;;4951374;28;20207;-80
2022/03/31 05:45:12;;;;;;;6.90;5.20;;;3.30;99.90;;;;;;4968430;28;20639;-80
2022/03/31 05:47:40;;;;;;;8.70;5.07;;;3.40;99.90;;;;;;4968557;28;20209;-79
2022/03/31 05:50:08;;;;;;;8.43;5.23;;;3.50;99.90;;;;;;4965483;28;20284;-80
2022/03/31 05:52:38;;;;;;;12.00;6.00;;;3.40;99.90;;;;;;4966149;28;20189;-80
2022/03/31 05:55:08;;;;;;;7.70;5.70;;;3.40;99.90;;;;;;4967566;28;20197;-79
2022/03/31 05:57:35;;;;;;;9.60;5.67;;;3.50;99.90;;;;;;4968432;28;20205;-80
2022/03/31 06:00:03;;;;;;;8.37;5.57;;;3.40;99.90;;;;;;4951092;28;20184;-80
2022/03/31 06:02:29;;;;;;;5.73;4.53;;;3.50;99.90;;;;;;4952116;28;20185;-79
2022/03/31 06:04:54;;;;;;;7.87;5.00;;;3.50;99.90;;;;;;4951437;28;20193;-80
2022/03/31 06:07:20;;;;;;;7.40;5.27;;;3.50;99.90;;;;;;4950775;28;20266;-80
2022/03/31 06:09:45;;;;;;;6.20;4.70;;;3.60;99.90;;;;;;4967782;28;20188;-80
2022/03/31 06:12:11;;;;;;;7.93;5.20;;;3.50;99.90;;;;;;4951267;28;20211;-79
2022/03/31 06:14:37;;;;;;;8.03;4.77;;;3.50;99.90;;;;;;4951707;28;20239;-80
2022/03/31 06:17:02;;;;;;;8.87;5.43;;;3.50;99.90;;;;;;4948961;28;20192;-80
2022/03/31 06:19:28;;;;;;;8.20;5.43;;;3.60;99.90;;;;;;4967553;28;20216;-79
2022/03/31 06:21:53;;;;;;;7.17;5.17;;;3.60;99.90;;;;;;4967766;28;20211;-80
2022/03/31 06:24:19;;;;;;;8.83;5.60;;;3.70;99.90;;;;;;4950197;28;20185;-80
2022/03/31 06:26:45;;;;;;;7.93;6.00;;;3.70;99.90;;;;;;4967833;28;21048;-80
2022/03/31 06:29:13;;;;;;;9.33;5.90;;;3.70;99.90;;;;;;4950326;28;20233;-80
2022/03/31 06:31:38;;;;;;;7.07;5.33;;;3.90;99.90;;;;;;4967825;28;20195;-79
2022/03/31 06:34:05;;;;;;;9.77;6.07;;;4.00;99.90;;;;;;4967331;28;20189;-79
2022/03/31 06:36:31;;;;;;;7.93;5.93;;;4.00;99.90;;;;;;4967677;28;20181;-80
2022/03/31 06:38:57;;;;;;;7.50;5.53;;;4.20;99.90;;;;;;4950365;28;20216;-79
2022/03/31 06:41:23;;;;;;;8.40;6.77;;;4.20;99.90;;;;;;4969122;28;20306;-79
2022/03/31 06:43:49;;;;;;;8.33;5.90;;;4.20;99.90;;;;;;4971239;28;20558;-79
2022/03/31 06:46:16;;;;;;;8.37;6.37;;;4.40;99.90;;;;;;4955500;28;20181;-79
2022/03/31 06:48:46;;;;;;;7.63;5.93;;;4.30;99.90;;;;;;4945480;28;20705;-80
2022/03/31 06:51:13;;;;;;;11.80;6.60;;;4.30;99.90;;;;;;4964003;28;20181;-79
2022/03/31 06:53:40;;;;;;;8.73;6.70;;;4.40;99.90;;;;;;4962188;28;20189;-78
2022/03/31 06:56:07;;;;;;;10.00;7.77;;;4.50;99.90;;;;;;4964983;28;20201;-80
2022/03/31 06:58:33;;;;;;;9.53;6.77;;;4.40;99.90;;;;;;4962337;28;20220;-79
2022/03/31 07:00:59;;;;;;;8.67;6.20;;;4.50;99.90;;;;;;4945254;28;20658;-80
2022/03/31 07:03:26;;;;;;;22.07;12.73;;;4.70;99.90;;;;;;4950405;28;20193;-78
2022/03/31 07:05:52;;;;;;;20.17;13.37;;;4.70;99.90;;;;;;4965406;28;20188;-77
2022/03/31 07:08:18;;;;;;;24.53;13.13;;;4.60;99.90;;;;;;4944321;28;21023;-77
2022/03/31 07:10:44;;;;;;;15.23;10.43;;;4.60;99.90;;;;;;4966811;28;20230;-79
2022/03/31 07:13:10;;;;;;;10.03;6.87;;;4.50;99.90;;;;;;4948951;28;20663;-80
2022/03/31 07:15:36;;;;;;;9.37;6.53;;;4.60;99.90;;;;;;4966917;28;20193;-77
2022/03/31 07:18:03;;;;;;;10.63;7.37;;;4.60;99.90;;;;;;4965234;28;20208;-78
2022/03/31 07:20:30;;;;;;;13.23;9.70;;;4.70;99.90;;;;;;4948940;28;20187;-79
2022/03/31 07:22:56;;;;;;;20.77;14.20;;;4.80;99.90;;;;;;4966494;28;20193;-77
2022/03/31 07:25:22;;;;;;;30.00;19.87;;;4.70;99.90;;;;;;4949149;28;20243;-79
2022/03/31 07:27:49;;;;;;;18.80;12.17;;;4.60;99.90;;;;;;4955062;28;20209;-80
2022/03/31 07:30:16;;;;;;;11.50;8.03;;;4.70;99.90;;;;;;4967160;28;20185;-79
2022/03/31 07:32:54;;;;;;;10.40;7.70;;;4.50;99.90;;;;;;4965255;28;20973;-79
2022/03/31 07:35:21;;;;;;;15.17;12.97;;;4.60;99.90;;;;;;4949125;28;20249;-80
2022/03/31 07:37:48;;;;;;;11.47;9.87;;;4.50;99.90;;;;;;4965163;28;20204;-79
2022/03/31 07:40:15;;;;;;;11.93;9.33;;;4.30;99.90;;;;;;4958177;28;20227;-80
2022/03/31 07:42:41;;;;;;;10.50;7.83;;;4.30;99.90;;;;;;4966218;28;20838;-78
2022/03/31 07:45:07;;;;;;;13.50;10.30;;;4.30;99.90;;;;;;4948164;28;20185;-80
2022/03/31 07:47:33;;;;;;;11.10;9.07;;;4.30;99.90;;;;;;4947787;28;20231;-80
2022/03/31 07:49:58;;;;;;;11.83;9.83;;;4.30;99.90;;;;;;4965351;28;20875;-78
2022/03/31 07:52:24;;;;;;;14.47;10.17;;;4.30;99.90;;;;;;4949656;28;20898;-79
2022/03/31 07:54:49;;;;;;;12.73;7.87;;;4.20;99.90;;;;;;4964969;28;20231;-78
2022/03/31 07:57:16;;;;;;;10.87;7.80;;;4.20;99.90;;;;;;4964708;28;20220;-77
2022/03/31 07:59:42;;;;;;;13.30;7.50;;;4.20;99.90;;;;;;4966709;28;20616;-77
2022/03/31 08:02:09;;;;;;;11.57;7.30;;;4.30;99.90;;;;;;4948325;28;20188;-79
2022/03/31 08:04:34;;;;;;;10.97;8.07;;;4.40;99.90;;;;;;4964454;28;20207;-78
2022/03/31 08:07:00;;;;;;;11.10;8.00;;;4.50;99.90;;;;;;4948196;28;20812;-77
2022/03/31 08:09:26;;;;;;;10.40;8.13;;;4.60;99.90;;;;;;4965387;28;20197;-79
2022/03/31 08:11:52;;;;;;;13.70;7.80;;;4.70;99.90;;;;;;4949112;28;20204;-78
2022/03/31 08:14:19;;;;;;;10.30;7.27;;;4.70;99.90;;;;;;4966254;28;20208;-79
2022/03/31 08:16:46;;;;;;;14.10;9.20;;;4.90;99.90;;;;;;4966137;28;20753;-79
2022/03/31 08:19:13;;;;;;;10.83;7.63;;;4.90;99.90;;;;;;4949153;28;20205;-77
2022/03/31 08:21:39;;;;;;;10.13;7.77;;;4.90;99.90;;;;;;4948219;28;20607;-78
2022/03/31 08:24:05;;;;;;;16.03;14.40;;;4.90;99.90;;;;;;4965052;28;20185;-78
2022/03/31 08:26:30;;;;;;;11.73;8.30;;;4.70;99.90;;;;;;4948067;28;20654;-78
2022/03/31 08:28:56;;;;;;;11.83;9.63;;;4.70;99.90;;;;;;4962827;28;20548;-78
2022/03/31 08:31:22;;;;;;;11.60;8.10;;;4.60;99.90;;;;;;4963883;28;20233;-79
2022/03/31 08:33:48;;;;;;;11.00;7.10;;;4.70;99.90;;;;;;4952080;28;20185;-79
2022/03/31 08:36:14;;;;;;;9.40;7.27;;;4.80;99.90;;;;;;4946969;28;20185;-79
2022/03/31 08:38:39;;;;;;;9.13;6.43;;;4.90;99.90;;;;;;4964444;28;20580;-78
2022/03/31 08:41:05;;;;;;;11.27;6.60;;;4.80;99.90;;;;;;4949777;28;20197;-77
2022/03/31 08:43:32;;;;;;;9.80;6.23;;;4.90;99.90;;;;;;4948448;28;20195;-79
2022/03/31 08:45:57;;;;;;;9.17;5.70;;;5.20;99.90;;;;;;4943375;28;20186;-79
2022/03/31 08:48:25;;;;;;;8.73;5.60;;;5.30;99.90;;;;;;4960323;28;20296;-79
2022/03/31 08:50:50;;;;;;;7.50;5.77;;;5.40;99.90;;;;;;4946856;28;20455;-77
2022/03/31 08:53:16;;;;;;;6.60;5.10;;;5.50;99.90;;;;;;4947101;28;20341;-79
2022/03/31 08:55:42;;;;;;;6.67;5.67;;;5.60;99.90;;;;;;4963288;28;20299;-79
2022/03/31 08:58:09;;;;;;;7.40;5.50;;;5.70;99.90;;;;;;4964938;28;20259;-77
2022/03/31 09:00:34;;;;;;;7.73;5.53;;;5.60;99.90;;;;;;4947802;28;20206;-79
2022/03/31 09:03:07;;;;;;;8.57;5.20;;;5.50;99.90;;;;;;4947822;28;20481;-78
2022/03/31 09:05:41;;;;;;;5.90;4.67;;;5.80;99.90;;;;;;4964349;28;20907;-79
2022/03/31 09:08:10;;;;;;;6.60;5.03;;;5.60;99.90;;;;;;4964043;28;20199;-79
2022/03/31 09:11:00;;;;;;;7.23;5.00;;;5.50;99.90;;;;;;4965616;28;21515;-79
2022/03/31 09:13:31;;;;;;;6.80;4.70;;;5.80;99.90;;;;;;4957133;28;20177;-78
2022/03/31 09:16:03;;;;;;;7.20;5.03;;;5.70;99.90;;;;;;4949275;28;20636;-79
2022/03/31 09:18:31;;;;;;;6.73;4.77;;;5.90;99.90;;;;;;4945422;28;20209;-77
2022/03/31 09:20:59;;;;;;;8.80;7.10;;;6.00;99.90;;;;;;4965327;28;20193;-78
2022/03/31 09:23:39;;;;;;;6.47;4.50;;;6.10;99.90;;;;;;4965507;28;20188;-79
2022/03/31 09:26:08;;;;;;;6.10;4.73;;;6.00;99.90;;;;;;4965198;28;20181;-79
2022/03/31 09:28:36;;;;;;;6.13;4.20;;;6.10;99.90;;;;;;4965982;28;20262;-77
2022/03/31 09:31:02;;;;;;;4.60;4.10;;;6.20;99.90;;;;;;4966612;28;20312;-79
2022/03/31 09:33:31;;;;;;;8.70;4.50;;;6.40;99.90;;;;;;4965957;28;20703;-81
2022/03/31 09:35:59;;;;;;;5.17;4.27;;;6.40;99.90;;;;;;4939343;28;20251;-79
2022/03/31 09:38:25;;;;;;;7.37;4.47;;;6.30;99.90;;;;;;4964789;28;20220;-79
2022/03/31 09:40:50;;;;;;;5.47;4.20;;;6.20;99.90;;;;;;4941880;28;20651;-80
2022/03/31 09:43:17;;;;;;;5.67;4.17;;;6.30;99.90;;;;;;4948471;28;20242;-80
2022/03/31 09:45:43;;;;;;;6.83;3.80;;;6.20;99.90;;;;;;4949454;28;20197;-80
2022/03/31 09:48:21;;;;;;;4.33;3.60;;;6.10;99.90;;;;;;4964307;28;20243;-79
2022/03/31 09:50:48;;;;;;;5.47;3.50;;;6.20;99.90;;;;;;4967696;28;20192;-78
2022/03/31 09:53:15;;;;;;;5.13;4.10;;;6.00;99.90;;;;;;4950403;28;20193;-79
2022/03/31 09:55:44;;;;;;;4.87;3.60;;;6.00;99.90;;;;;;4966629;28;20196;-79
2022/03/31 09:58:18;;;;;;;5.23;3.50;;;6.00;99.90;;;;;;4969076;28;20232;-79
2022/03/31 10:00:45;;;;;;;5.40;3.50;;;5.90;99.90;;;;;;4952751;28;20185;-77
2022/03/31 10:03:15;;;;;;;7.13;3.30;;;5.90;99.90;;;;;;4970171;28;20192;-79
2022/03/31 10:05:42;;;;;;;6.43;3.67;;;5.80;99.90;;;;;;4952516;28;20181;-79
2022/03/31 10:08:11;;;;;;;5.33;3.23;;;5.90;99.90;;;;;;4966992;28;20212;-77
2022/03/31 10:10:38;;;;;;;5.13;3.33;;;6.00;99.90;;;;;;4969660;28;20185;-78
2022/03/31 10:13:15;;;;;;;4.40;3.57;;;5.90;99.90;;;;;;4951645;28;20192;-77
2022/03/31 10:15:42;;;;;;;4.73;3.03;;;5.90;99.90;;;;;;4959969;28;20192;-78
2022/03/31 10:18:11;;;;;;;4.57;3.53;;;6.00;99.90;;;;;;4968396;28;20357;-79
2022/03/31 10:20:37;;;;;;;5.27;3.07;;;6.20;99.90;;;;;;4968514;28;20189;-77
2022/03/31 10:25:49;;;;;;;3.80;3.33;;;6.00;99.90;;;;;;4966170;28;20317;-79
2022/03/31 10:28:22;;;;;;;5.70;3.20;;;6.00;99.90;;;;;;4967527;28;20224;-80
2022/03/31 10:31:03;;;;;;;4.27;3.27;;;6.10;99.90;;;;;;4968678;28;20181;-78
2022/03/31 10:33:37;;;;;;;3.60;2.97;;;6.20;99.90;;;;;;4967678;28;20189;-80
2022/03/31 10:36:13;;;;;;;7.27;3.70;;;6.40;99.90;;;;;;4959720;28;20566;-79
2022/03/31 10:39:02;;;;;;;4.37;3.10;;;6.40;99.90;;;;;;4967743;28;20216;-79
2022/03/31 10:41:35;;;;;;;5.27;3.40;;;6.80;99.90;;;;;;4967880;28;20185;-77
2022/03/31 10:44:17;;;;;;;7.80;3.20;;;7.10;99.90;;;;;;4950788;28;20246;-80
2022/03/31 10:46:45;;;;;;;8.80;4.03;;;7.20;99.90;;;;;;4967201;28;20685;-79
2022/03/31 10:49:17;;;;;;;4.27;3.53;;;7.30;99.90;;;;;;4967779;28;20669;-79
2022/03/31 10:51:45;;;;;;;4.53;2.90;;;7.60;99.90;;;;;;4950666;28;20555;-79
2022/03/31 10:54:33;;;;;;;4.37;2.83;;;7.20;99.90;;;;;;4934149;28;20659;-79
2022/03/31 10:57:10;;;;;;;4.67;3.03;;;7.10;99.90;;;;;;4950408;28;20275;-78
2022/03/31 10:59:37;;;;;;;5.93;3.13;;;6.90;99.90;;;;;;4967682;28;20197;-80
2022/03/31 11:02:14;;;;;;;4.67;3.03;;;6.60;99.90;;;;;;4968041;28;20185;-77
2022/03/31 11:04:50;;;;;;;3.80;2.50;;;6.80;99.90;;;;;;4959527;28;20189;-80
2022/03/31 11:07:24;;;;;;;3.67;2.80;;;7.00;99.90;;;;;;4965801;28;20688;-80
2022/03/31 11:10:11;;;;;;;4.50;3.00;;;7.00;99.90;;;;;;4967876;28;20184;-77
2022/03/31 11:12:39;;;;;;;4.47;2.97;;;6.90;99.90;;;;;;4967727;28;20215;-79
2022/03/31 11:15:10;;;;;;;3.70;2.90;;;6.70;99.90;;;;;;4949126;28;20254;-77
2022/03/31 11:17:37;;;;;;;4.87;3.07;;;6.80;99.90;;;;;;4966420;28;20698;-80
2022/03/31 11:20:17;;;;;;;6.30;3.20;;;6.90;99.90;;;;;;4967385;28;20292;-77
2022/03/31 11:22:51;;;;;;;5.27;3.37;;;7.00;99.90;;;;;;4967845;28;20185;-79
2022/03/31 11:25:18;;;;;;;4.20;3.10;;;6.90;99.90;;;;;;4942387;28;20590;-80
2022/03/31 11:27:46;;;;;;;5.37;2.90;;;6.60;99.90;;;;;;4966824;28;20266;-79
2022/03/31 11:30:24;;;;;;;4.57;2.97;;;6.40;99.90;;;;;;4950398;28;20184;-78
2022/03/31 11:32:57;;;;;;;6.33;3.40;;;6.40;99.90;;;;;;4965807;28;20188;-78
2022/03/31 11:35:25;;;;;;;4.83;2.73;;;6.30;99.90;;;;;;4967234;28;20229;-80
2022/03/31 11:38:02;;;;;;;4.57;2.60;;;6.70;99.90;;;;;;4966816;28;20216;-77
2022/03/31 11:40:34;;;;;;;4.77;2.57;;;6.50;99.90;;;;;;4966805;28;20173;-78
2022/03/31 11:43:03;;;;;;;6.73;3.50;;;6.30;99.90;;;;;;4966990;28;20185;-79
2022/03/31 11:45:33;;;;;;;3.90;3.37;;;6.00;99.90;;;;;;4967438;28;20697;-79
2022/03/31 11:48:05;;;;;;;3.70;3.00;;;6.10;99.90;;;;;;4956393;28;20236;-77
2022/03/31 11:50:32;;;;;;;5.97;3.40;;;6.30;99.90;;;;;;4942081;28;20185;-78
2022/03/31 11:52:58;;;;;;;9.60;6.20;;;6.50;99.90;;;;;;4965589;28;20189;-77
2022/03/31 11:55:24;;;;;;;6.77;5.33;;;6.50;99.90;;;;;;4948380;28;20235;-79
2022/03/31 11:58:00;;;;;;;4.30;2.93;;;6.50;99.90;;;;;;4947380;28;20196;-77
2022/03/31 12:00:29;;;;;;;4.00;2.73;;;6.30;99.90;;;;;;4965471;28;20189;-78
2022/03/31 12:03:03;;;;;;;3.73;2.60;;;6.30;99.90;;;;;;4964732;28;20193;-79
2022/03/31 12:05:30;;;;;;;6.27;2.80;;;6.40;99.90;;;;;;4963615;28;20587;-79
2022/03/31 12:07:57;;;;;;;4.20;2.60;;;6.50;99.90;;;;;;4961238;28;20212;-79
2022/03/31 12:10:23;;;;;;;4.33;2.40;;;6.40;99.90;;;;;;4969877;28;20209;-79
2022/03/31 12:12:51;;;;;;;6.53;2.53;;;6.40;99.90;;;;;;4966297;28;20193;-79
2022/03/31 12:15:22;;;;;;;5.03;2.83;;;6.40;99.90;;;;;;4949540;28;20212;-79
2022/03/31 12:17:56;;;;;;;6.30;3.00;;;6.30;99.90;;;;;;4966224;28;20285;-79
2022/03/31 12:20:22;;;;;;;11.57;3.37;;;6.30;99.90;;;;;;4967182;28;20284;-79
2022/03/31 12:22:48;;;;;;;4.67;2.77;;;6.20;99.90;;;;;;4966704;28;20263;-79
2022/03/31 12:25:24;;;;;;;5.30;2.83;;;6.20;99.90;;;;;;4964114;28;20288;-81
2022/03/31 12:27:50;;;;;;;4.33;2.70;;;6.10;99.90;;;;;;4941881;28;20291;-80
2022/03/31 12:30:17;;;;;;;3.93;2.63;;;6.10;99.90;;;;;;4961496;28;20199;-80
2022/03/31 12:32:48;;;;;;;5.40;2.90;;;6.10;99.90;;;;;;4944474;28;20185;-77
2022/03/31 12:35:14;;;;;;;5.17;2.80;;;6.20;99.90;;;;;;4963464;28;20189;-79
2022/03/31 12:37:48;;;;;;;4.00;2.97;;;6.20;99.90;;;;;;4946256;28;20251;-79
2022/03/31 12:40:16;;;;;;;6.30;3.10;;;5.90;99.90;;;;;;4947368;28;20220;-78
2022/03/31 12:42:53;;;;;;;4.10;2.90;;;5.80;99.90;;;;;;4964437;28;20619;-78
2022/03/31 12:45:19;;;;;;;4.90;3.10;;;5.80;99.90;;;;;;4964696;28;20650;-77
2022/03/31 12:47:47;;;;;;;6.80;3.47;;;6.00;99.90;;;;;;4964697;28;20221;-79
2022/03/31 12:50:18;;;;;;;4.07;3.00;;;5.90;99.90;;;;;;4948784;28;20219;-77
2022/03/31 12:52:58;;;;;;;5.07;3.13;;;5.90;99.90;;;;;;4948001;28;20192;-79
2022/03/31 12:55:35;;;;;;;4.37;2.87;;;5.90;99.90;;;;;;4967165;28;20185;-79
2022/03/31 12:58:03;;;;;;;5.67;2.97;;;5.90;99.90;;;;;;4947264;28;20224;-80